sensor_id;sensor_type;location;lat;lon;timestamp;P1;durP1;ratioP1;P2;durP2;ratioP2
30458;SDS011;17254;50.976;7.034;2023-04-03T00:00:03;9.63;;;8.13;;
30458;SDS011;17254;50.976;7.034;2023-04-03T00:00:12;9.27;;;8.37;;
30458;SDS011;17254;50.976;7.034;2023-04-03T00:00:18;9.40;;;8.47;;
30458;SDS011;17254;50.976;7.034;2023-04-03T00:00:24;9.33;;;8.43;;
30458;SDS011;17254;50.976;7.034;2023-04-03T00:00:30;9.50;;;8.60;;
30458;SDS011;17254;50.976;7.034;2023-04-03T00:00:36;9.60;;;8.70;;
30458;SDS011;17254;50.976;7.034;2023-04-03T00:00:43;9.60;;;8.70;;
30458;SDS011;17254;50.976;7.034;2023-04-03T00:00:49;9.82;;;8.82;;
30458;SDS011;17254;50.976;7.034;2023-04-03T00:00:55;9.90;;;8.90;;
30458;SDS011;17254;50.976;7.034;2023-04-03T00:01:01;9.98;;;8.98;;
30458;SDS011;17254;50.976;7.034;2023-04-03T00:01:07;10.00;;;9.00;;
30458;SDS011;17254;50.976;7.034;2023-04-03T00:01:14;9.95;;;8.95;;
30458;SDS011;17254;50.976;7.034;2023-04-03T00:01:20;9.40;;;8.45;;
30458;SDS011;17254;50.976;7.034;2023-04-03T00:01:27;9.33;;;8.40;;
30458;SDS011;17254;50.976;7.034;2023-04-03T00:01:34;9.28;;;8.38;;
30458;SDS011;17254;50.976;7.034;2023-04-03T00:01:40;9.03;;;8.13;;
30458;SDS011;17254;50.976;7.034;2023-04-03T00:01:46;9.00;;;8.10;;
30458;SDS011;17254;50.976;7.034;2023-04-03T00:01:53;9.26;;;8.30;;
30458;SDS011;17254;50.976;7.034;2023-04-03T00:01:59;10.52;;;8.52;;
30458;SDS011;17254;50.976;7.034;2023-04-03T00:02:05;11.00;;;8.37;;
30458;SDS011;17254;50.976;7.034;2023-04-03T00:02:11;10.93;;;8.50;;
30458;SDS011;17254;50.976;7.034;2023-04-03T00:02:17;11.00;;;8.40;;
30458;SDS011;17254;50.976;7.034;2023-04-03T00:02:23;10.70;;;8.33;;
30458;SDS011;17254;50.976;7.034;2023-04-03T00:02:29;9.10;;;8.10;;
30458;SDS011;17254;50.976;7.034;2023-04-03T00:02:35;9.37;;;8.40;;
30458;SDS011;17254;50.976;7.034;2023-04-03T00:02:41;9.20;;;8.30;;
30458;SDS011;17254;50.976;7.034;2023-04-03T00:02:47;9.30;;;8.40;;
30458;SDS011;17254;50.976;7.034;2023-04-03T00:02:53;9.30;;;8.40;;
30458;SDS011;17254;50.976;7.034;2023-04-03T00:02:59;9.23;;;8.33;;
30458;SDS011;17254;50.976;7.034;2023-04-03T00:03:05;9.00;;;8.05;;
30458;SDS011;17254;50.976;7.034;2023-04-03T00:03:11;9.50;;;8.10;;
30458;SDS011;17254;50.976;7.034;2023-04-03T00:03:17;9.25;;;8.23;;
30458;SDS011;17254;50.976;7.034;2023-04-03T00:03:24;9.55;;;8.40;;
30458;SDS011;17254;50.976;7.034;2023-04-03T00:03:30;9.43;;;8.43;;
30458;SDS011;17254;50.976;7.034;2023-04-03T00:03:37;9.46;;;8.50;;
30458;SDS011;17254;50.976;7.034;2023-04-03T00:03:43;9.50;;;8.60;;
30458;SDS011;17254;50.976;7.034;2023-04-03T00:03:49;9.37;;;8.47;;
30458;SDS011;17254;50.976;7.034;2023-04-03T00:03:56;9.20;;;8.37;;
30458;SDS011;17254;50.976;7.034;2023-04-03T00:04:02;9.27;;;8.30;;
30458;SDS011;17254;50.976;7.034;2023-04-03T00:04:09;9.25;;;8.30;;
30458;SDS011;17254;50.976;7.034;2023-04-03T00:04:15;8.95;;;8.05;;
30458;SDS011;17254;50.976;7.034;2023-04-03T00:04:21;9.13;;;8.00;;
30458;SDS011;17254;50.976;7.034;2023-04-03T00:04:26;10.32;;;8.13;;
30458;SDS011;17254;50.976;7.034;2023-04-03T00:04:32;9.70;;;8.52;;
30458;SDS011;17254;50.976;7.034;2023-04-03T00:04:38;10.38;;;8.68;;
30458;SDS011;17254;50.976;7.034;2023-04-03T00:04:45;10.93;;;8.70;;
30458;SDS011;17254;50.976;7.034;2023-04-03T00:04:51;10.68;;;8.77;;
30458;SDS011;17254;50.976;7.034;2023-04-03T00:04:58;9.76;;;8.78;;
30458;SDS011;17254;50.976;7.034;2023-04-03T00:05:04;9.52;;;8.55;;
30458;SDS011;17254;50.976;7.034;2023-04-03T00:05:11;9.32;;;8.48;;
30458;SDS011;17254;50.976;7.034;2023-04-03T00:05:16;9.73;;;8.85;;
30458;SDS011;17254;50.976;7.034;2023-04-03T00:05:22;9.63;;;8.75;;
30458;SDS011;17254;50.976;7.034;2023-04-03T00:05:28;9.67;;;8.77;;
30458;SDS011;17254;50.976;7.034;2023-04-03T00:05:35;9.75;;;8.70;;
30458;SDS011;17254;50.976;7.034;2023-04-03T00:05:41;9.85;;;8.68;;
30458;SDS011;17254;50.976;7.034;2023-04-03T00:05:47;9.87;;;8.47;;
30458;SDS011;17254;50.976;7.034;2023-04-03T00:05:53;10.00;;;8.73;;
30458;SDS011;17254;50.976;7.034;2023-04-03T00:06:00;10.37;;;8.57;;
30458;SDS011;17254;50.976;7.034;2023-04-03T00:06:06;9.80;;;8.77;;
30458;SDS011;17254;50.976;7.034;2023-04-03T00:06:13;9.80;;;8.80;;
30458;SDS011;17254;50.976;7.034;2023-04-03T00:06:20;9.75;;;8.68;;
30458;SDS011;17254;50.976;7.034;2023-04-03T00:06:27;11.30;;;8.66;;
30458;SDS011;17254;50.976;7.034;2023-04-03T00:06:33;11.10;;;8.55;;
30458;SDS011;17254;50.976;7.034;2023-04-03T00:06:40;10.86;;;8.34;;
30458;SDS011;17254;50.976;7.034;2023-04-03T00:06:46;10.80;;;8.27;;
30458;SDS011;17254;50.976;7.034;2023-04-03T00:06:51;10.90;;;8.23;;
30458;SDS011;17254;50.976;7.034;2023-04-03T00:06:58;9.38;;;8.32;;
30458;SDS011;17254;50.976;7.034;2023-04-03T00:07:04;9.47;;;8.47;;
30458;SDS011;17254;50.976;7.034;2023-04-03T00:07:10;9.73;;;8.73;;
30458;SDS011;17254;50.976;7.034;2023-04-03T00:07:17;9.80;;;8.80;;
30458;SDS011;17254;50.976;7.034;2023-04-03T00:07:23;9.60;;;8.60;;
30458;SDS011;17254;50.976;7.034;2023-04-03T00:07:30;9.33;;;8.40;;
30458;SDS011;17254;50.976;7.034;2023-04-03T00:07:37;9.57;;;8.57;;
30458;SDS011;17254;50.976;7.034;2023-04-03T00:07:44;9.38;;;8.47;;
30458;SDS011;17254;50.976;7.034;2023-04-03T00:07:50;9.18;;;8.27;;
30458;SDS011;17254;50.976;7.034;2023-04-03T00:07:56;9.35;;;8.40;;
30458;SDS011;17254;50.976;7.034;2023-04-03T00:08:02;9.45;;;8.50;;
30458;SDS011;17254;50.976;7.034;2023-04-03T00:08:09;9.10;;;8.20;;
30458;SDS011;17254;50.976;7.034;2023-04-03T00:08:15;9.23;;;8.23;;
30458;SDS011;17254;50.976;7.034;2023-04-03T00:08:21;9.35;;;8.43;;
30458;SDS011;17254;50.976;7.034;2023-04-03T00:08:27;9.60;;;8.60;;
30458;SDS011;17254;50.976;7.034;2023-04-03T00:08:35;9.77;;;8.77;;
30458;SDS011;17254;50.976;7.034;2023-04-03T00:08:42;9.88;;;8.85;;
30458;SDS011;17254;50.976;7.034;2023-04-03T00:08:48;9.84;;;8.90;;
30458;SDS011;17254;50.976;7.034;2023-04-03T00:08:54;9.48;;;8.55;;
30458;SDS011;17254;50.976;7.034;2023-04-03T00:09:01;9.58;;;8.58;;
30458;SDS011;17254;50.976;7.034;2023-04-03T00:09:07;9.40;;;8.43;;
30458;SDS011;17254;50.976;7.034;2023-04-03T00:09:13;9.15;;;8.25;;
30458;SDS011;17254;50.976;7.034;2023-04-03T00:09:19;9.07;;;8.13;;
30458;SDS011;17254;50.976;7.034;2023-04-03T00:09:25;9.17;;;8.20;;
30458;SDS011;17254;50.976;7.034;2023-04-03T00:09:31;9.24;;;8.30;;
30458;SDS011;17254;50.976;7.034;2023-04-03T00:09:37;9.57;;;8.57;;
30458;SDS011;17254;50.976;7.034;2023-04-03T00:09:43;9.87;;;8.87;;
30458;SDS011;17254;50.976;7.034;2023-04-03T00:09:49;10.15;;;9.05;;
30458;SDS011;17254;50.976;7.034;2023-04-03T00:09:55;10.10;;;9.04;;
30458;SDS011;17254;50.976;7.034;2023-04-03T00:10:02;9.83;;;8.87;;
30458;SDS011;17254;50.976;7.034;2023-04-03T00:10:09;9.53;;;8.63;;
30458;SDS011;17254;50.976;7.034;2023-04-03T00:10:15;9.46;;;8.56;;
30458;SDS011;17254;50.976;7.034;2023-04-03T00:10:21;9.48;;;8.57;;
30458;SDS011;17254;50.976;7.034;2023-04-03T00:10:27;9.65;;;8.73;;
30458;SDS011;17254;50.976;7.034;2023-04-03T00:10:35;9.68;;;8.78;;
30458;SDS011;17254;50.976;7.034;2023-04-03T00:10:41;9.87;;;8.97;;
30458;SDS011;17254;50.976;7.034;2023-04-03T00:10:47;9.70;;;8.80;;
30458;SDS011;17254;50.976;7.034;2023-04-03T00:10:53;9.70;;;8.77;;
30458;SDS011;17254;50.976;7.034;2023-04-03T00:10:59;9.88;;;8.88;;
30458;SDS011;17254;50.976;7.034;2023-04-03T00:11:06;9.93;;;8.93;;
30458;SDS011;17254;50.976;7.034;2023-04-03T00:11:12;9.96;;;8.96;;
30458;SDS011;17254;50.976;7.034;2023-04-03T00:11:18;10.03;;;9.03;;
30458;SDS011;17254;50.976;7.034;2023-04-03T00:11:25;9.98;;;9.04;;
30458;SDS011;17254;50.976;7.034;2023-04-03T00:11:32;9.57;;;8.77;;
30458;SDS011;17254;50.976;7.034;2023-04-03T00:11:38;9.40;;;8.60;;
30458;SDS011;17254;50.976;7.034;2023-04-03T00:11:45;9.50;;;8.60;;
30458;SDS011;17254;50.976;7.034;2023-04-03T00:11:51;9.58;;;8.68;;
30458;SDS011;17254;50.976;7.034;2023-04-03T00:11:57;9.48;;;8.55;;
30458;SDS011;17254;50.976;7.034;2023-04-03T00:12:03;9.38;;;8.48;;
30458;SDS011;17254;50.976;7.034;2023-04-03T00:12:09;9.82;;;8.85;;
30458;SDS011;17254;50.976;7.034;2023-04-03T00:12:16;9.48;;;8.57;;
30458;SDS011;17254;50.976;7.034;2023-04-03T00:12:21;9.43;;;8.52;;
30458;SDS011;17254;50.976;7.034;2023-04-03T00:12:27;9.52;;;8.60;;
30458;SDS011;17254;50.976;7.034;2023-04-03T00:12:33;9.50;;;8.60;;
30458;SDS011;17254;50.976;7.034;2023-04-03T00:12:39;9.30;;;8.40;;
30458;SDS011;17254;50.976;7.034;2023-04-03T00:12:45;9.60;;;8.63;;
30458;SDS011;17254;50.976;7.034;2023-04-03T00:12:51;9.80;;;8.80;;
30458;SDS011;17254;50.976;7.034;2023-04-03T00:12:57;9.82;;;8.82;;
30458;SDS011;17254;50.976;7.034;2023-04-03T00:13:04;9.97;;;8.90;;
30458;SDS011;17254;50.976;7.034;2023-04-03T00:13:10;9.82;;;8.65;;
30458;SDS011;17254;50.976;7.034;2023-04-03T00:13:17;9.50;;;8.43;;
30458;SDS011;17254;50.976;7.034;2023-04-03T00:13:23;9.27;;;8.30;;
30458;SDS011;17254;50.976;7.034;2023-04-03T00:13:29;9.35;;;8.45;;
30458;SDS011;17254;50.976;7.034;2023-04-03T00:13:35;9.38;;;8.48;;
30458;SDS011;17254;50.976;7.034;2023-04-03T00:13:42;9.47;;;8.67;;
30458;SDS011;17254;50.976;7.034;2023-04-03T00:13:48;9.57;;;8.68;;
30458;SDS011;17254;50.976;7.034;2023-04-03T00:13:54;9.40;;;8.50;;
30458;SDS011;17254;50.976;7.034;2023-04-03T00:14:00;9.30;;;8.40;;
30458;SDS011;17254;50.976;7.034;2023-04-03T00:14:05;9.25;;;8.35;;
30458;SDS011;17254;50.976;7.034;2023-04-03T00:14:12;9.44;;;8.48;;
30458;SDS011;17254;50.976;7.034;2023-04-03T00:14:18;9.45;;;8.57;;
30458;SDS011;17254;50.976;7.034;2023-04-03T00:14:24;9.90;;;8.95;;
30458;SDS011;17254;50.976;7.034;2023-04-03T00:14:32;9.97;;;8.97;;
30458;SDS011;17254;50.976;7.034;2023-04-03T00:14:38;9.98;;;9.02;;
30458;SDS011;17254;50.976;7.034;2023-04-03T00:14:44;9.80;;;8.90;;
30458;SDS011;17254;50.976;7.034;2023-04-03T00:14:50;9.68;;;8.68;;
30458;SDS011;17254;50.976;7.034;2023-04-03T00:14:56;9.33;;;8.43;;
30458;SDS011;17254;50.976;7.034;2023-04-03T00:15:02;9.20;;;8.30;;
30458;SDS011;17254;50.976;7.034;2023-04-03T00:15:09;9.20;;;8.30;;
30458;SDS011;17254;50.976;7.034;2023-04-03T00:15:15;9.40;;;8.58;;
30458;SDS011;17254;50.976;7.034;2023-04-03T00:15:21;9.80;;;8.90;;
30458;SDS011;17254;50.976;7.034;2023-04-03T00:15:27;9.70;;;8.80;;
30458;SDS011;17254;50.976;7.034;2023-04-03T00:15:33;9.90;;;9.00;;
30458;SDS011;17254;50.976;7.034;2023-04-03T00:15:40;9.90;;;9.00;;
30458;SDS011;17254;50.976;7.034;2023-04-03T00:15:46;9.66;;;8.72;;
30458;SDS011;17254;50.976;7.034;2023-04-03T00:15:53;9.73;;;8.83;;
30458;SDS011;17254;50.976;7.034;2023-04-03T00:15:59;9.93;;;9.00;;
30458;SDS011;17254;50.976;7.034;2023-04-03T00:16:05;9.80;;;8.90;;
30458;SDS011;17254;50.976;7.034;2023-04-03T00:16:12;9.98;;;9.00;;
30458;SDS011;17254;50.976;7.034;2023-04-03T00:16:18;9.77;;;8.88;;
30458;SDS011;17254;50.976;7.034;2023-04-03T00:16:24;9.73;;;8.80;;
30458;SDS011;17254;50.976;7.034;2023-04-03T00:16:30;9.93;;;8.93;;
30458;SDS011;17254;50.976;7.034;2023-04-03T00:16:36;10.00;;;9.00;;
30458;SDS011;17254;50.976;7.034;2023-04-03T00:16:41;9.90;;;8.90;;
30458;SDS011;17254;50.976;7.034;2023-04-03T00:16:47;9.90;;;8.90;;
30458;SDS011;17254;50.976;7.034;2023-04-03T00:16:53;9.75;;;8.85;;
30458;SDS011;17254;50.976;7.034;2023-04-03T00:16:59;9.50;;;8.60;;
30458;SDS011;17254;50.976;7.034;2023-04-03T00:17:05;9.75;;;8.75;;
30458;SDS011;17254;50.976;7.034;2023-04-03T00:17:11;9.75;;;8.75;;
30458;SDS011;17254;50.976;7.034;2023-04-03T00:17:18;10.00;;;9.00;;
30458;SDS011;17254;50.976;7.034;2023-04-03T00:17:24;10.05;;;8.95;;
30458;SDS011;17254;50.976;7.034;2023-04-03T00:17:30;9.97;;;8.97;;
30458;SDS011;17254;50.976;7.034;2023-04-03T00:17:36;9.95;;;8.95;;
30458;SDS011;17254;50.976;7.034;2023-04-03T00:17:42;9.85;;;8.85;;
30458;SDS011;17254;50.976;7.034;2023-04-03T00:17:48;9.80;;;8.80;;
30458;SDS011;17254;50.976;7.034;2023-04-03T00:17:54;9.70;;;8.80;;
30458;SDS011;17254;50.976;7.034;2023-04-03T00:18:00;9.80;;;8.88;;
30458;SDS011;17254;50.976;7.034;2023-04-03T00:18:06;9.93;;;8.95;;
30458;SDS011;17254;50.976;7.034;2023-04-03T00:18:13;10.02;;;9.10;;
30458;SDS011;17254;50.976;7.034;2023-04-03T00:18:19;10.10;;;9.10;;
30458;SDS011;17254;50.976;7.034;2023-04-03T00:18:25;10.00;;;9.00;;
30458;SDS011;17254;50.976;7.034;2023-04-03T00:18:31;10.73;;;9.13;;
30458;SDS011;17254;50.976;7.034;2023-04-03T00:18:37;10.85;;;9.05;;
30458;SDS011;17254;50.976;7.034;2023-04-03T00:18:44;11.22;;;9.04;;
30458;SDS011;17254;50.976;7.034;2023-04-03T00:18:51;11.10;;;9.33;;
30458;SDS011;17254;50.976;7.034;2023-04-03T00:18:57;10.98;;;9.35;;
30458;SDS011;17254;50.976;7.034;2023-04-03T00:19:03;10.27;;;9.27;;
30458;SDS011;17254;50.976;7.034;2023-04-03T00:19:09;10.13;;;9.13;;
30458;SDS011;17254;50.976;7.034;2023-04-03T00:19:16;10.23;;;9.23;;
30458;SDS011;17254;50.976;7.034;2023-04-03T00:19:22;10.15;;;9.15;;
30458;SDS011;17254;50.976;7.034;2023-04-03T00:19:28;10.13;;;9.13;;
30458;SDS011;17254;50.976;7.034;2023-04-03T00:19:34;10.38;;;9.30;;
30458;SDS011;17254;50.976;7.034;2023-04-03T00:19:40;10.45;;;9.38;;
30458;SDS011;17254;50.976;7.034;2023-04-03T00:19:46;10.18;;;9.15;;
30458;SDS011;17254;50.976;7.034;2023-04-03T00:19:52;9.93;;;8.93;;
30458;SDS011;17254;50.976;7.034;2023-04-03T00:19:58;9.85;;;8.85;;
30458;SDS011;17254;50.976;7.034;2023-04-03T00:20:04;9.80;;;8.67;;
30458;SDS011;17254;50.976;7.034;2023-04-03T00:20:11;9.60;;;8.56;;
30458;SDS011;17254;50.976;7.034;2023-04-03T00:20:17;9.68;;;8.73;;
30458;SDS011;17254;50.976;7.034;2023-04-03T00:20:23;9.80;;;8.90;;
30458;SDS011;17254;50.976;7.034;2023-04-03T00:20:29;10.00;;;9.05;;
30458;SDS011;17254;50.976;7.034;2023-04-03T00:20:37;9.98;;;9.10;;
30458;SDS011;17254;50.976;7.034;2023-04-03T00:20:42;9.80;;;8.90;;
30458;SDS011;17254;50.976;7.034;2023-04-03T00:20:49;9.60;;;8.70;;
30458;SDS011;17254;50.976;7.034;2023-04-03T00:20:55;9.73;;;8.73;;
30458;SDS011;17254;50.976;7.034;2023-04-03T00:21:01;9.48;;;8.48;;
30458;SDS011;17254;50.976;7.034;2023-04-03T00:21:08;9.38;;;8.43;;
30458;SDS011;17254;50.976;7.034;2023-04-03T00:21:15;9.48;;;8.53;;
30458;SDS011;17254;50.976;7.034;2023-04-03T00:21:21;9.70;;;8.73;;
30458;SDS011;17254;50.976;7.034;2023-04-03T00:21:27;9.68;;;8.77;;
30458;SDS011;17254;50.976;7.034;2023-04-03T00:21:33;9.70;;;8.80;;
30458;SDS011;17254;50.976;7.034;2023-04-03T00:21:39;9.77;;;8.82;;
30458;SDS011;17254;50.976;7.034;2023-04-03T00:21:45;9.80;;;8.90;;
30458;SDS011;17254;50.976;7.034;2023-04-03T00:21:51;9.70;;;8.80;;
30458;SDS011;17254;50.976;7.034;2023-04-03T00:21:58;9.70;;;8.76;;
30458;SDS011;17254;50.976;7.034;2023-04-03T00:22:04;9.75;;;8.85;;
30458;SDS011;17254;50.976;7.034;2023-04-03T00:22:10;9.60;;;8.70;;
30458;SDS011;17254;50.976;7.034;2023-04-03T00:22:16;9.40;;;8.50;;
30458;SDS011;17254;50.976;7.034;2023-04-03T00:22:23;9.36;;;8.46;;
30458;SDS011;17254;50.976;7.034;2023-04-03T00:22:31;9.33;;;8.43;;
30458;SDS011;17254;50.976;7.034;2023-04-03T00:22:38;9.35;;;8.45;;
30458;SDS011;17254;50.976;7.034;2023-04-03T00:22:44;9.73;;;8.73;;
30458;SDS011;17254;50.976;7.034;2023-04-03T00:22:50;9.87;;;8.87;;
30458;SDS011;17254;50.976;7.034;2023-04-03T00:22:56;9.52;;;8.63;;
30458;SDS011;17254;50.976;7.034;2023-04-03T00:23:02;9.50;;;8.60;;
30458;SDS011;17254;50.976;7.034;2023-04-03T00:23:08;9.37;;;8.50;;
30458;SDS011;17254;50.976;7.034;2023-04-03T00:23:14;9.34;;;8.54;;
30458;SDS011;17254;50.976;7.034;2023-04-03T00:23:21;9.43;;;8.53;;
30458;SDS011;17254;50.976;7.034;2023-04-03T00:23:28;9.70;;;8.74;;
30458;SDS011;17254;50.976;7.034;2023-04-03T00:23:34;9.70;;;8.75;;
30458;SDS011;17254;50.976;7.034;2023-04-03T00:23:40;9.57;;;8.68;;
30458;SDS011;17254;50.976;7.034;2023-04-03T00:23:46;9.40;;;8.52;;
30458;SDS011;17254;50.976;7.034;2023-04-03T00:23:53;9.20;;;8.40;;
30458;SDS011;17254;50.976;7.034;2023-04-03T00:23:59;9.27;;;8.48;;
30458;SDS011;17254;50.976;7.034;2023-04-03T00:24:05;9.33;;;8.53;;
30458;SDS011;17254;50.976;7.034;2023-04-03T00:24:11;9.38;;;8.50;;
30458;SDS011;17254;50.976;7.034;2023-04-03T00:24:17;9.23;;;8.33;;
30458;SDS011;17254;50.976;7.034;2023-04-03T00:24:23;9.98;;;8.63;;
30458;SDS011;17254;50.976;7.034;2023-04-03T00:24:29;10.15;;;8.65;;
30458;SDS011;17254;50.976;7.034;2023-04-03T00:24:35;10.32;;;8.70;;
30458;SDS011;17254;50.976;7.034;2023-04-03T00:24:41;10.20;;;8.80;;
30458;SDS011;17254;50.976;7.034;2023-04-03T00:24:47;10.57;;;9.02;;
30458;SDS011;17254;50.976;7.034;2023-04-03T00:24:53;10.23;;;8.95;;
30458;SDS011;17254;50.976;7.034;2023-04-03T00:24:58;10.43;;;9.02;;
30458;SDS011;17254;50.976;7.034;2023-04-03T00:25:05;10.30;;;9.10;;
30458;SDS011;17254;50.976;7.034;2023-04-03T00:25:12;10.10;;;9.08;;
30458;SDS011;17254;50.976;7.034;2023-04-03T00:25:18;9.98;;;9.00;;
30458;SDS011;17254;50.976;7.034;2023-04-03T00:25:24;9.57;;;8.75;;
30458;SDS011;17254;50.976;7.034;2023-04-03T00:25:31;9.40;;;8.54;;
30458;SDS011;17254;50.976;7.034;2023-04-03T00:25:38;9.38;;;8.38;;
30458;SDS011;17254;50.976;7.034;2023-04-03T00:25:44;9.55;;;8.55;;
30458;SDS011;17254;50.976;7.034;2023-04-03T00:25:50;9.73;;;8.63;;
30458;SDS011;17254;50.976;7.034;2023-04-03T00:25:56;10.00;;;8.82;;
30458;SDS011;17254;50.976;7.034;2023-04-03T00:26:02;10.10;;;8.77;;
30458;SDS011;17254;50.976;7.034;2023-04-03T00:26:08;9.67;;;8.77;;
30458;SDS011;17254;50.976;7.034;2023-04-03T00:26:14;9.53;;;8.63;;
30458;SDS011;17254;50.976;7.034;2023-04-03T00:26:20;9.63;;;8.60;;
30458;SDS011;17254;50.976;7.034;2023-04-03T00:26:26;10.10;;;8.57;;
30458;SDS011;17254;50.976;7.034;2023-04-03T00:26:32;9.95;;;8.73;;
30458;SDS011;17254;50.976;7.034;2023-04-03T00:26:39;10.07;;;9.00;;
30458;SDS011;17254;50.976;7.034;2023-04-03T00:26:45;9.95;;;8.80;;
30458;SDS011;17254;50.976;7.034;2023-04-03T00:26:52;10.04;;;9.04;;
30458;SDS011;17254;50.976;7.034;2023-04-03T00:26:58;10.10;;;9.15;;
30458;SDS011;17254;50.976;7.034;2023-04-03T00:27:04;10.17;;;9.17;;
30458;SDS011;17254;50.976;7.034;2023-04-03T00:27:10;12.60;;;9.10;;
30458;SDS011;17254;50.976;7.034;2023-04-03T00:27:16;13.88;;;9.50;;
30458;SDS011;17254;50.976;7.034;2023-04-03T00:27:22;14.07;;;9.43;;
30458;SDS011;17254;50.976;7.034;2023-04-03T00:27:28;13.70;;;9.48;;
30458;SDS011;17254;50.976;7.034;2023-04-03T00:27:35;13.63;;;9.50;;
30458;SDS011;17254;50.976;7.034;2023-04-03T00:27:42;10.67;;;9.57;;
30458;SDS011;17254;50.976;7.034;2023-04-03T00:27:47;10.40;;;9.40;;
30458;SDS011;17254;50.976;7.034;2023-04-03T00:27:53;10.57;;;9.57;;
30458;SDS011;17254;50.976;7.034;2023-04-03T00:27:59;10.48;;;9.48;;
30458;SDS011;17254;50.976;7.034;2023-04-03T00:28:06;10.50;;;9.50;;
30458;SDS011;17254;50.976;7.034;2023-04-03T00:28:12;10.70;;;9.70;;
30458;SDS011;17254;50.976;7.034;2023-04-03T00:28:18;10.70;;;9.70;;
30458;SDS011;17254;50.976;7.034;2023-04-03T00:28:24;10.63;;;9.63;;
30458;SDS011;17254;50.976;7.034;2023-04-03T00:28:31;10.66;;;9.66;;
30458;SDS011;17254;50.976;7.034;2023-04-03T00:28:37;10.73;;;9.73;;
30458;SDS011;17254;50.976;7.034;2023-04-03T00:28:43;10.55;;;9.55;;
30458;SDS011;17254;50.976;7.034;2023-04-03T00:28:50;10.77;;;9.77;;
30458;SDS011;17254;50.976;7.034;2023-04-03T00:28:55;10.70;;;9.70;;
30458;SDS011;17254;50.976;7.034;2023-04-03T00:29:01;10.90;;;9.82;;
30458;SDS011;17254;50.976;7.034;2023-04-03T00:29:07;10.95;;;9.85;;
30458;SDS011;17254;50.976;7.034;2023-04-03T00:29:13;11.13;;;10.02;;
30458;SDS011;17254;50.976;7.034;2023-04-03T00:29:19;11.10;;;10.00;;
30458;SDS011;17254;50.976;7.034;2023-04-03T00:29:25;11.38;;;10.27;;
30458;SDS011;17254;50.976;7.034;2023-04-03T00:29:31;11.47;;;10.33;;
30458;SDS011;17254;50.976;7.034;2023-04-03T00:29:37;11.40;;;10.30;;
30458;SDS011;17254;50.976;7.034;2023-04-03T00:29:43;11.55;;;10.43;;
30458;SDS011;17254;50.976;7.034;2023-04-03T00:29:49;11.77;;;10.57;;
30458;SDS011;17254;50.976;7.034;2023-04-03T00:29:56;11.52;;;10.28;;
30458;SDS011;17254;50.976;7.034;2023-04-03T00:30:02;11.45;;;10.32;;
30458;SDS011;17254;50.976;7.034;2023-04-03T00:30:09;11.63;;;10.43;;
30458;SDS011;17254;50.976;7.034;2023-04-03T00:30:19;11.27;;;10.13;;
30458;SDS011;17254;50.976;7.034;2023-04-03T00:30:27;11.27;;;10.12;;
30458;SDS011;17254;50.976;7.034;2023-04-03T00:30:33;11.30;;;10.03;;
30458;SDS011;17254;50.976;7.034;2023-04-03T00:30:39;11.27;;;10.05;;
30458;SDS011;17254;50.976;7.034;2023-04-03T00:30:45;11.33;;;10.23;;
30458;SDS011;17254;50.976;7.034;2023-04-03T00:30:52;11.63;;;10.53;;
30458;SDS011;17254;50.976;7.034;2023-04-03T00:30:58;11.73;;;10.53;;
30458;SDS011;17254;50.976;7.034;2023-04-03T00:31:04;11.86;;;10.64;;
30458;SDS011;17254;50.976;7.034;2023-04-03T00:31:10;11.73;;;10.52;;
30458;SDS011;17254;50.976;7.034;2023-04-03T00:31:20;11.86;;;10.60;;
30458;SDS011;17254;50.976;7.034;2023-04-03T00:31:26;11.80;;;10.60;;
30458;SDS011;17254;50.976;7.034;2023-04-03T00:31:32;11.70;;;10.53;;
30458;SDS011;17254;50.976;7.034;2023-04-03T00:31:38;11.77;;;10.57;;
30458;SDS011;17254;50.976;7.034;2023-04-03T00:31:44;11.55;;;10.35;;
30458;SDS011;17254;50.976;7.034;2023-04-03T00:31:50;11.45;;;10.23;;
30458;SDS011;17254;50.976;7.034;2023-04-03T00:31:56;11.52;;;10.18;;
30458;SDS011;17254;50.976;7.034;2023-04-03T00:32:02;11.48;;;10.18;;
30458;SDS011;17254;50.976;7.034;2023-04-03T00:32:08;11.30;;;10.10;;
30458;SDS011;17254;50.976;7.034;2023-04-03T00:32:15;11.43;;;10.23;;
30458;SDS011;17254;50.976;7.034;2023-04-03T00:32:21;11.16;;;10.08;;
30458;SDS011;17254;50.976;7.034;2023-04-03T00:32:27;11.05;;;10.00;;
30458;SDS011;17254;50.976;7.034;2023-04-03T00:32:33;10.95;;;9.88;;
30458;SDS011;17254;50.976;7.034;2023-04-03T00:32:39;10.63;;;9.57;;
30458;SDS011;17254;50.976;7.034;2023-04-03T00:32:47;10.42;;;9.36;;
30458;SDS011;17254;50.976;7.034;2023-04-03T00:32:53;10.33;;;9.23;;
30458;SDS011;17254;50.976;7.034;2023-04-03T00:32:59;9.98;;;8.96;;
30458;SDS011;17254;50.976;7.034;2023-04-03T00:33:05;9.98;;;8.95;;
30458;SDS011;17254;50.976;7.034;2023-04-03T00:33:12;10.07;;;9.07;;
30458;SDS011;17254;50.976;7.034;2023-04-03T00:33:18;11.53;;;9.23;;
30458;SDS011;17254;50.976;7.034;2023-04-03T00:33:26;11.72;;;9.23;;
30458;SDS011;17254;50.976;7.034;2023-04-03T00:33:32;11.57;;;9.35;;
30458;SDS011;17254;50.976;7.034;2023-04-03T00:33:38;11.02;;;9.40;;
30458;SDS011;17254;50.976;7.034;2023-04-03T00:33:44;10.68;;;9.35;;
30458;SDS011;17254;50.976;7.034;2023-04-03T00:33:50;10.00;;;9.10;;
30458;SDS011;17254;50.976;7.034;2023-04-03T00:33:56;10.10;;;9.20;;
30458;SDS011;17254;50.976;7.034;2023-04-03T00:34:03;10.10;;;9.13;;
30458;SDS011;17254;50.976;7.034;2023-04-03T00:34:10;9.80;;;8.90;;
30458;SDS011;17254;50.976;7.034;2023-04-03T00:34:16;10.00;;;9.02;;
30458;SDS011;17254;50.976;7.034;2023-04-03T00:34:22;9.88;;;8.98;;
30458;SDS011;17254;50.976;7.034;2023-04-03T00:34:29;9.70;;;8.80;;
30458;SDS011;17254;50.976;7.034;2023-04-03T00:34:35;9.63;;;8.70;;
30458;SDS011;17254;50.976;7.034;2023-04-03T00:34:41;9.55;;;8.65;;
30458;SDS011;17254;50.976;7.034;2023-04-03T00:34:47;9.43;;;8.52;;
30458;SDS011;17254;50.976;7.034;2023-04-03T00:34:53;9.40;;;8.50;;
30458;SDS011;17254;50.976;7.034;2023-04-03T00:34:58;9.30;;;8.43;;
30458;SDS011;17254;50.976;7.034;2023-04-03T00:35:05;9.35;;;8.50;;
30458;SDS011;17254;50.976;7.034;2023-04-03T00:35:12;9.53;;;8.63;;
30458;SDS011;17254;50.976;7.034;2023-04-03T00:35:20;9.60;;;8.70;;
30458;SDS011;17254;50.976;7.034;2023-04-03T00:35:28;9.90;;;9.00;;
30458;SDS011;17254;50.976;7.034;2023-04-03T00:35:34;9.80;;;8.90;;
30458;SDS011;17254;50.976;7.034;2023-04-03T00:35:41;9.70;;;8.80;;
30458;SDS011;17254;50.976;7.034;2023-04-03T00:35:47;9.70;;;8.80;;
30458;SDS011;17254;50.976;7.034;2023-04-03T00:35:53;9.70;;;8.77;;
30458;SDS011;17254;50.976;7.034;2023-04-03T00:36:04;9.60;;;8.65;;
30458;SDS011;17254;50.976;7.034;2023-04-03T00:36:11;9.61;;;8.64;;
30458;SDS011;17254;50.976;7.034;2023-04-03T00:36:18;9.77;;;8.77;;
30458;SDS011;17254;50.976;7.034;2023-04-03T00:36:24;10.05;;;9.07;;
30458;SDS011;17254;50.976;7.034;2023-04-03T00:36:30;10.20;;;9.20;;
30458;SDS011;17254;50.976;7.034;2023-04-03T00:36:36;10.30;;;9.30;;
30458;SDS011;17254;50.976;7.034;2023-04-03T00:36:42;10.40;;;9.40;;
30458;SDS011;17254;50.976;7.034;2023-04-03T00:36:48;10.15;;;9.15;;
30458;SDS011;17254;50.976;7.034;2023-04-03T00:36:54;9.88;;;8.93;;
30458;SDS011;17254;50.976;7.034;2023-04-03T00:37:01;9.80;;;8.90;;
30458;SDS011;17254;50.976;7.034;2023-04-03T00:37:07;9.82;;;8.93;;
30458;SDS011;17254;50.976;7.034;2023-04-03T00:37:13;10.13;;;9.17;;
30458;SDS011;17254;50.976;7.034;2023-04-03T00:37:19;10.35;;;9.35;;
30458;SDS011;17254;50.976;7.034;2023-04-03T00:37:25;10.30;;;9.30;;
30458;SDS011;17254;50.976;7.034;2023-04-03T00:37:31;10.20;;;9.20;;
30458;SDS011;17254;50.976;7.034;2023-04-03T00:37:39;10.13;;;9.13;;